Chichinales, Argentina
Current Conditions -  °F | °C
As of 3:00 AM on Thursday 27 Nov 2014 (Local Time) from SAZN Reporting Station
Clear Clear  
Wind Chill: 54°   Ceiling: Unl
Heat Index: 54°   Visibility: 6mi
Dew Point: 43°   Wind: 3mph
Humidity: 67%   Direction: 270°W
Pressure: 29.88"   Gusts: NA
Location:  39.01°S, 66.9°W
Report Text: SAZN 270600Z 27003KT CAVOK 12/06 Q1012
Loading
Personal Weather Stations






























Interactive Weather Map New forecast layout! Learn more

10-Day Weather Forecast

Advertisements
Track Severe Weather on mobile